createdAt,value
2018-12-26T00:01:01.569Z,73.19
2018-12-26T00:03:32.398Z,73.31
2018-12-26T00:06:03.079Z,73.38
2018-12-26T00:08:34.210Z,73.46
2018-12-26T00:11:05.873Z,73.46
2018-12-26T00:13:36.717Z,73.51
2018-12-26T00:16:06.364Z,73.65
2018-12-26T00:18:35.976Z,73.68
2018-12-26T00:21:05.576Z,73.78
2018-12-26T00:23:35.103Z,73.81
2018-12-26T00:26:04.678Z,73.86
2018-12-26T00:28:34.214Z,73.84
2018-12-26T00:31:05.409Z,73.88
2018-12-26T00:33:34.914Z,73.87
2018-12-26T00:36:04.948Z,74.13
2018-12-26T00:38:34.599Z,74.01
2018-12-26T00:41:04.230Z,73.85
2018-12-26T00:43:33.808Z,73.91
2018-12-26T00:46:03.320Z,74.03
2018-12-26T00:48:32.857Z,74.05
2018-12-26T00:51:02.419Z,74.09
2018-12-26T00:53:31.962Z,74.30
2018-12-26T00:56:10.270Z,74.40
2018-12-26T00:58:32.799Z,74.50
2018-12-26T01:01:02.358Z,74.59
2018-12-26T01:03:32.382Z,74.67
2018-12-26T01:06:01.908Z,74.71
2018-12-26T01:08:31.582Z,74.65
2018-12-26T01:11:01.186Z,74.53
2018-12-26T01:13:30.753Z,74.54
2018-12-26T01:16:00.308Z,74.50
2018-12-26T01:18:29.879Z,74.68
2018-12-26T01:20:59.407Z,74.81
2018-12-26T01:23:28.978Z,74.93
2018-12-26T01:25:58.535Z,74.87
2018-12-26T01:28:28.118Z,74.86
2018-12-26T01:30:57.656Z,74.99
2018-12-26T01:33:27.215Z,75.11
2018-12-26T01:35:56.767Z,75.09
2018-12-26T01:38:26.340Z,75.06
2018-12-26T01:40:55.912Z,75.20
2018-12-26T01:43:25.524Z,75.16
2018-12-26T01:45:55.084Z,75.25
2018-12-26T01:48:24.631Z,75.21
2018-12-26T01:50:54.185Z,75.49
2018-12-26T01:53:23.763Z,75.43
2018-12-26T01:55:53.297Z,75.53
2018-12-26T01:58:22.831Z,75.64
2018-12-26T02:00:52.410Z,75.61
2018-12-26T02:03:21.914Z,75.81
2018-12-26T02:05:51.482Z,75.94
2018-12-26T02:08:21.064Z,76.16
2018-12-26T02:10:50.621Z,76.07
2018-12-26T02:13:20.229Z,76.02
2018-12-26T02:15:49.775Z,76.12
2018-12-26T02:18:19.314Z,76.21
2018-12-26T02:20:49.142Z,76.16
2018-12-26T02:23:18.670Z,76.23
2018-12-26T02:25:48.214Z,76.21
2018-12-26T02:28:17.764Z,76.17
2018-12-26T02:30:47.322Z,76.16
2018-12-26T02:33:16.867Z,76.22
2018-12-26T02:35:46.425Z,76.30
2018-12-26T02:38:15.992Z,76.38
2018-12-26T02:40:45.518Z,76.47
2018-12-26T02:43:15.071Z,76.73
2018-12-26T02:45:44.614Z,76.61
2018-12-26T02:48:14.176Z,76.53
2018-12-26T02:50:43.725Z,76.54
2018-12-26T02:53:13.317Z,76.62
2018-12-26T02:55:45.268Z,76.64
2018-12-26T02:58:14.820Z,76.75
2018-12-26T03:00:44.386Z,76.93
2018-12-26T03:03:13.952Z,77.08
2018-12-26T03:05:43.482Z,77.12
2018-12-26T03:08:13.019Z,77.05
2018-12-26T03:10:42.601Z,77.06
2018-12-26T03:13:12.132Z,77.07
2018-12-26T03:15:41.692Z,77.09
2018-12-26T03:18:11.233Z,77.15
2018-12-26T03:20:40.803Z,77.26
2018-12-26T03:23:10.325Z,77.17
2018-12-26T03:25:39.892Z,77.11
2018-12-26T03:28:09.451Z,77.10
2018-12-26T03:30:39.000Z,77.13
2018-12-26T03:33:08.574Z,77.23
2018-12-26T03:35:38.100Z,77.28
2018-12-26T03:38:07.672Z,77.55
2018-12-26T03:40:37.354Z,77.47
2018-12-26T03:43:07.002Z,77.48
2018-12-26T03:45:36.994Z,77.44
2018-12-26T03:48:06.600Z,77.49
2018-12-26T03:50:36.178Z,77.66
2018-12-26T03:53:05.885Z,77.68
2018-12-26T03:55:36.311Z,77.69
2018-12-26T03:58:05.891Z,77.80
2018-12-26T04:00:35.437Z,77.82
2018-12-26T04:03:04.971Z,77.94
2018-12-26T04:05:34.545Z,77.97
2018-12-26T04:08:04.479Z,78.08
2018-12-26T04:10:34.174Z,78.00
2018-12-26T04:13:06.078Z,77.98
2018-12-26T04:15:35.788Z,77.99
2018-12-26T04:18:05.401Z,77.93
2018-12-26T04:20:34.991Z,78.09
2018-12-26T04:23:05.897Z,77.94
2018-12-26T04:25:38.240Z,78.03
2018-12-26T04:28:07.835Z,78.08
2018-12-26T04:30:39.100Z,78.16
2018-12-26T04:33:08.649Z,78.23
2018-12-26T04:35:38.498Z,78.24
2018-12-26T04:38:09.096Z,78.41
2018-12-26T04:40:38.668Z,78.35
2018-12-26T04:43:08.219Z,78.25
2018-12-26T04:45:37.785Z,78.23
2018-12-26T04:48:07.352Z,78.15
2018-12-26T04:50:36.957Z,78.25
2018-12-26T04:53:06.504Z,78.16
2018-12-26T04:55:37.690Z,78.19
2018-12-26T04:58:07.259Z,78.25
2018-12-26T05:00:36.802Z,78.24
2018-12-26T05:03:06.343Z,78.37
2018-12-26T05:05:35.870Z,78.15
2018-12-26T05:08:05.453Z,78.24
2018-12-26T05:10:34.987Z,78.11
2018-12-26T05:13:04.625Z,78.05
2018-12-26T05:15:34.164Z,77.98
2018-12-26T05:18:03.751Z,77.88
2018-12-26T05:20:33.558Z,77.85
2018-12-26T05:23:03.118Z,77.87
2018-12-26T05:25:32.645Z,77.89
2018-12-26T05:28:02.198Z,78.04
2018-12-26T05:30:31.736Z,77.92
2018-12-26T05:33:01.301Z,77.77
2018-12-26T05:35:30.913Z,77.72
2018-12-26T05:38:00.469Z,77.57
2018-12-26T05:40:30.043Z,77.50
2018-12-26T05:42:59.858Z,77.49
2018-12-26T05:45:29.395Z,77.42
2018-12-26T05:47:58.969Z,77.37
2018-12-26T05:50:28.958Z,77.49
2018-12-26T05:52:58.491Z,77.34
2018-12-26T05:55:28.039Z,77.19
2018-12-26T05:57:59.230Z,77.16
2018-12-26T06:00:28.770Z,77.10
2018-12-26T06:02:58.343Z,77.04
2018-12-26T06:05:30.187Z,77.04
2018-12-26T06:07:59.742Z,77.12
2018-12-26T06:10:29.555Z,77.02
2018-12-26T06:12:59.230Z,76.92
2018-12-26T06:15:30.353Z,76.88
2018-12-26T06:18:00.302Z,76.73
2018-12-26T06:20:29.910Z,76.65
2018-12-26T06:22:59.472Z,76.65
2018-12-26T06:25:29.042Z,76.69
2018-12-26T06:27:58.736Z,76.55
2018-12-26T06:30:28.289Z,76.49
2018-12-26T06:32:57.812Z,76.52
2018-12-26T06:35:27.471Z,76.48
2018-12-26T06:37:57.043Z,76.40
2018-12-26T06:40:26.575Z,76.37
2018-12-26T06:42:56.143Z,76.26
2018-12-26T06:45:26.159Z,76.34
2018-12-26T06:47:55.726Z,76.32
2018-12-26T06:50:25.259Z,76.27
2018-12-26T06:52:54.853Z,76.27
2018-12-26T06:55:27.455Z,76.27
2018-12-26T06:58:00.204Z,76.30
2018-12-26T07:00:29.468Z,76.18
2018-12-26T07:02:59.997Z,76.08
2018-12-26T07:05:29.520Z,75.96
2018-12-26T07:07:59.072Z,75.88
2018-12-26T07:10:28.632Z,75.99
2018-12-26T07:12:58.444Z,75.85
2018-12-26T07:15:28.017Z,75.80
2018-12-26T07:17:57.593Z,75.79
2018-12-26T07:20:27.160Z,75.78
2018-12-26T07:22:56.718Z,75.85
2018-12-26T07:25:26.271Z,75.80
2018-12-26T07:27:55.813Z,75.67
2018-12-26T07:30:25.394Z,75.74
2018-12-26T07:32:55.124Z,75.59
2018-12-26T07:35:26.696Z,75.58
2018-12-26T07:37:56.337Z,75.33
2018-12-26T07:40:25.894Z,75.40
2018-12-26T07:42:55.437Z,75.41
2018-12-26T07:45:25.744Z,75.28
2018-12-26T07:47:55.564Z,75.31
2018-12-26T07:50:25.143Z,75.26
2018-12-26T07:52:54.709Z,75.33
2018-12-26T07:55:24.280Z,75.25
2018-12-26T07:57:53.828Z,75.10
2018-12-26T08:00:23.355Z,75.02
2018-12-26T08:02:52.918Z,74.93
2018-12-26T08:05:22.463Z,74.85
2018-12-26T08:07:52.003Z,74.82
2018-12-26T08:10:21.665Z,74.75
2018-12-26T08:12:51.230Z,74.56
2018-12-26T08:15:20.802Z,74.45
2018-12-26T08:17:50.349Z,74.35
2018-12-26T08:20:20.748Z,74.24
2018-12-26T08:22:51.298Z,74.22
2018-12-26T08:25:24.161Z,74.16
2018-12-26T08:27:53.701Z,74.19
2018-12-26T08:30:23.235Z,74.14
2018-12-26T08:32:53.217Z,73.95
2018-12-26T08:35:27.137Z,74.02
2018-12-26T08:37:57.719Z,73.95
2018-12-26T08:40:27.251Z,73.85
2018-12-26T08:42:56.833Z,73.88
2018-12-26T08:45:26.396Z,73.98
2018-12-26T08:47:55.981Z,73.51
2018-12-26T08:50:25.697Z,73.45
2018-12-26T08:52:55.528Z,73.48
2018-12-26T08:55:28.872Z,73.47
2018-12-26T08:57:58.796Z,73.21
2018-12-26T09:00:28.305Z,73.14
2018-12-26T09:02:57.907Z,73.13
2018-12-26T09:05:27.578Z,72.98
2018-12-26T09:07:57.090Z,72.87
2018-12-26T09:10:29.217Z,72.88
2018-12-26T09:12:58.708Z,72.87
2018-12-26T09:15:28.266Z,72.87
2018-12-26T09:17:59.488Z,72.73
2018-12-26T09:20:29.088Z,72.82
2018-12-26T09:23:00.528Z,72.80
2018-12-26T09:25:30.176Z,72.74
2018-12-26T09:27:59.809Z,72.61
2018-12-26T09:30:29.384Z,72.48
2018-12-26T09:32:58.972Z,72.53
2018-12-26T09:35:28.514Z,72.41
2018-12-26T09:37:58.083Z,72.47
2018-12-26T09:40:27.748Z,72.63
2018-12-26T09:42:58.009Z,72.60
2018-12-26T09:45:29.243Z,72.58
2018-12-26T09:48:00.456Z,72.65
2018-12-26T09:50:30.018Z,72.77
2018-12-26T09:52:59.605Z,72.64
2018-12-26T09:55:29.895Z,72.69
2018-12-26T09:58:01.189Z,72.70
2018-12-26T10:00:30.709Z,72.69
2018-12-26T10:03:02.566Z,72.72
2018-12-26T10:05:32.233Z,72.66
2018-12-26T10:08:02.176Z,72.57
2018-12-26T10:10:31.769Z,72.87
2018-12-26T10:13:02.380Z,72.69
2018-12-26T10:15:33.393Z,72.51
2018-12-26T10:18:04.124Z,72.34
2018-12-26T10:20:34.011Z,72.77
2018-12-26T10:23:04.871Z,72.68
2018-12-26T10:25:34.451Z,72.58
2018-12-26T10:28:04.020Z,72.13
2018-12-26T10:30:33.571Z,72.05
2018-12-26T10:33:04.367Z,71.82
2018-12-26T10:35:37.149Z,71.69
2018-12-26T10:38:08.939Z,71.50
2018-12-26T10:40:42.832Z,71.37
2018-12-26T10:43:15.069Z,71.34
2018-12-26T10:45:44.605Z,71.54
2018-12-26T10:48:15.967Z,71.36
2018-12-26T10:50:45.714Z,71.52
2018-12-26T10:53:15.283Z,71.59
2018-12-26T10:55:44.839Z,71.53
2018-12-26T10:58:16.283Z,71.49
2018-12-26T11:00:45.850Z,71.22
2018-12-26T11:03:15.427Z,71.10
2018-12-26T11:05:44.964Z,71.08
2018-12-26T11:08:14.536Z,70.92
2018-12-26T11:10:44.105Z,70.85
2018-12-26T11:13:14.580Z,70.56
2018-12-26T11:15:44.633Z,70.45
2018-12-26T11:18:15.244Z,70.30
2018-12-26T11:24:31.431Z,70.22
2018-12-26T11:27:00.953Z,70.09
2018-12-26T11:29:30.482Z,70.06
2018-12-26T11:32:00.055Z,69.93
2018-12-26T11:34:29.611Z,69.97
2018-12-26T11:36:59.227Z,70.04
2018-12-26T11:39:29.068Z,69.99
2018-12-26T11:41:58.708Z,70.14
2018-12-26T11:44:28.487Z,70.07
2018-12-26T11:46:58.309Z,70.08
2018-12-26T11:49:27.845Z,70.08
2018-12-26T11:51:57.410Z,69.95
2018-12-26T11:54:26.956Z,69.89
2018-12-26T11:56:56.511Z,70.05
2018-12-26T11:59:27.328Z,70.02
2018-12-26T12:01:57.135Z,69.78
2018-12-26T12:04:26.700Z,69.74
2018-12-26T12:06:56.278Z,69.82
2018-12-26T12:09:25.861Z,69.99
2018-12-26T12:11:55.407Z,69.96
2018-12-26T12:14:24.959Z,69.96
2018-12-26T12:16:56.032Z,69.88
2018-12-26T12:19:25.697Z,69.87
2018-12-26T12:21:56.173Z,69.94
2018-12-26T12:24:26.469Z,69.84
2018-12-26T12:26:57.801Z,69.94
2018-12-26T12:29:35.818Z,69.98
2018-12-26T12:31:58.703Z,69.99
2018-12-26T12:34:29.809Z,69.91
2018-12-26T12:37:01.165Z,69.88
2018-12-26T12:39:32.144Z,69.84
2018-12-26T12:42:02.911Z,69.54
2018-12-26T12:44:32.434Z,69.47
2018-12-26T12:47:02.023Z,69.32
2018-12-26T12:49:33.931Z,69.18
2018-12-26T12:52:03.514Z,69.09
2018-12-26T12:54:33.511Z,68.99
2018-12-26T12:57:03.807Z,69.05
2018-12-26T12:59:33.351Z,69.05
2018-12-26T13:02:04.157Z,68.80
2018-12-26T13:04:33.758Z,68.65
2018-12-26T13:07:03.405Z,68.32
2018-12-26T13:09:33.056Z,68.20
2018-12-26T13:12:02.964Z,68.09
2018-12-26T13:14:34.033Z,68.20
2018-12-26T13:17:03.609Z,68.43
2018-12-26T13:19:33.111Z,68.27
2018-12-26T13:22:02.764Z,68.01
2018-12-26T13:24:32.236Z,67.98
2018-12-26T13:27:03.317Z,68.01
2018-12-26T13:29:32.820Z,67.80
2018-12-26T13:32:02.370Z,67.59
2018-12-26T13:34:31.913Z,67.53
2018-12-26T13:37:01.467Z,67.28
2018-12-26T13:39:30.996Z,67.25
2018-12-26T13:42:00.570Z,67.37
2018-12-26T13:44:30.700Z,67.59
2018-12-26T13:47:00.841Z,67.41
2018-12-26T13:49:30.330Z,66.95
2018-12-26T13:51:59.898Z,66.92
2018-12-26T13:54:29.440Z,66.78
2018-12-26T13:57:01.937Z,66.69
2018-12-26T13:59:31.514Z,66.59
2018-12-26T14:02:01.051Z,66.55
2018-12-26T14:04:33.859Z,66.52
2018-12-26T14:07:04.838Z,66.46
2018-12-26T14:09:34.351Z,66.44
2018-12-26T14:12:03.883Z,66.53
2018-12-26T14:14:33.446Z,66.58
2018-12-26T14:17:03.006Z,66.87
2018-12-26T14:19:32.548Z,66.61
2018-12-26T14:22:02.112Z,66.11
2018-12-26T14:24:31.646Z,66.19
2018-12-26T14:27:01.213Z,66.00
2018-12-26T14:29:30.751Z,66.00
2018-12-26T14:32:00.381Z,66.04
2018-12-26T14:34:29.987Z,66.13
2018-12-26T14:36:59.785Z,65.92
2018-12-26T14:39:29.313Z,65.97
2018-12-26T14:41:58.850Z,65.79
2018-12-26T14:44:28.420Z,65.62
2018-12-26T14:46:57.996Z,65.47
2018-12-26T14:49:27.547Z,65.52
2018-12-26T14:51:57.087Z,65.75
2018-12-26T14:54:26.635Z,66.00
2018-12-26T14:56:56.182Z,66.21
2018-12-26T14:59:25.836Z,66.19
2018-12-26T15:01:55.356Z,66.26
2018-12-26T15:04:24.936Z,66.49
2018-12-26T15:06:54.482Z,66.60
2018-12-26T15:09:27.046Z,66.67
2018-12-26T15:11:56.585Z,66.45
2018-12-26T15:14:26.127Z,66.35
2018-12-26T15:16:56.639Z,66.21
2018-12-26T15:19:26.193Z,66.33
2018-12-26T15:21:55.731Z,66.62
2018-12-26T15:24:25.267Z,66.42
2018-12-26T15:26:54.836Z,66.46
2018-12-26T15:29:24.368Z,66.36
2018-12-26T15:31:55.376Z,66.32
2018-12-26T15:34:24.960Z,66.31
2018-12-26T15:36:54.506Z,66.54
2018-12-26T15:39:24.052Z,66.57
2018-12-26T15:41:53.843Z,66.58
2018-12-26T15:44:23.453Z,66.50
2018-12-26T15:46:53.015Z,66.40
2018-12-26T15:49:22.557Z,66.46
2018-12-26T15:51:55.690Z,66.37
2018-12-26T15:54:25.212Z,66.21
2018-12-26T15:56:54.778Z,66.01
2018-12-26T15:59:24.324Z,66.15
2018-12-26T16:01:53.887Z,65.94
2018-12-26T16:04:23.551Z,65.93
2018-12-26T16:06:53.910Z,66.17
2018-12-26T16:09:23.521Z,66.27
2018-12-26T16:11:54.204Z,66.24
2018-12-26T16:14:23.856Z,65.96
2018-12-26T16:16:53.500Z,65.88
2018-12-26T16:19:24.209Z,65.87
2018-12-26T16:21:54.121Z,65.90
2018-12-26T16:24:23.680Z,65.86
2018-12-26T16:26:53.281Z,65.97
2018-12-26T16:29:22.822Z,65.98
2018-12-26T16:31:53.509Z,65.85
2018-12-26T16:34:23.072Z,65.85
2018-12-26T16:36:52.648Z,65.61
2018-12-26T16:39:23.915Z,65.42
2018-12-26T16:41:53.441Z,65.45
2018-12-26T16:44:22.991Z,65.33
2018-12-26T16:46:56.164Z,65.31
2018-12-26T16:49:26.946Z,65.21
2018-12-26T16:51:58.328Z,65.25
2018-12-26T16:54:28.094Z,65.33
2018-12-26T16:56:57.836Z,65.40
2018-12-26T16:59:27.383Z,65.53
2018-12-26T17:01:56.934Z,65.48
2018-12-26T17:04:26.481Z,65.55
2018-12-26T17:06:56.057Z,65.72
2018-12-26T17:09:25.589Z,65.71
2018-12-26T17:11:55.114Z,65.85
2018-12-26T17:14:24.661Z,65.78
2018-12-26T17:16:54.469Z,65.92
2018-12-26T17:19:24.044Z,65.72
2018-12-26T17:21:53.568Z,65.24
2018-12-26T17:24:23.171Z,64.80
2018-12-26T17:26:53.885Z,64.77
2018-12-26T17:29:24.117Z,64.66
2018-12-26T17:31:54.492Z,64.53
2018-12-26T17:34:24.893Z,64.34
2018-12-26T17:36:54.442Z,64.41
2018-12-26T17:39:23.995Z,64.39
2018-12-26T17:41:53.535Z,64.51
2018-12-26T17:44:23.058Z,64.47
2018-12-26T17:46:52.618Z,64.22
2018-12-26T17:49:22.182Z,64.08
2018-12-26T17:51:52.998Z,63.91
2018-12-26T17:54:26.838Z,63.82
2018-12-26T17:56:57.304Z,63.85
2018-12-26T17:59:32.477Z,63.62
2018-12-26T18:02:15.105Z,63.61
2018-12-26T18:04:49.613Z,63.74
2018-12-26T18:07:15.920Z,64.00
2018-12-26T18:09:45.476Z,64.24
2018-12-26T18:12:15.253Z,64.15
2018-12-26T18:14:44.802Z,64.05
2018-12-26T18:17:14.336Z,64.29
2018-12-26T18:19:43.873Z,64.63
2018-12-26T18:22:13.525Z,64.82
2018-12-26T18:24:43.047Z,64.86
2018-12-26T18:27:12.613Z,64.77
2018-12-26T18:29:43.160Z,64.67
2018-12-26T18:32:12.843Z,64.69
2018-12-26T18:34:44.963Z,64.98
2018-12-26T18:37:14.494Z,65.04
2018-12-26T18:39:44.298Z,65.12
2018-12-26T18:42:13.822Z,65.10
2018-12-26T18:44:43.371Z,65.19
2018-12-26T18:47:12.942Z,65.23
2018-12-26T18:49:42.495Z,65.54
2018-12-26T18:52:12.051Z,65.80
2018-12-26T18:54:41.582Z,65.85
2018-12-26T18:57:11.197Z,65.98
2018-12-26T18:59:40.767Z,66.16
2018-12-26T19:02:10.291Z,66.46
2018-12-26T19:04:42.524Z,66.57
2018-12-26T19:07:12.041Z,66.57
2018-12-26T19:09:41.590Z,67.06
2018-12-26T19:12:11.150Z,67.36
2018-12-26T19:14:40.787Z,67.40
2018-12-26T19:17:11.562Z,67.45
2018-12-26T19:19:41.214Z,67.54
2018-12-26T19:22:10.717Z,67.69
2018-12-26T19:24:40.548Z,68.12
2018-12-26T19:27:10.072Z,68.51
2018-12-26T19:29:39.595Z,68.63
2018-12-26T19:32:12.903Z,69.01
2018-12-26T19:34:42.177Z,69.08
2018-12-26T19:37:11.733Z,68.73
2018-12-26T19:39:41.281Z,68.44
2018-12-26T19:42:10.834Z,68.50
2018-12-26T19:44:40.434Z,68.54
2018-12-26T19:47:10.226Z,68.61
2018-12-26T19:49:39.802Z,68.75
2018-12-26T19:52:09.433Z,69.03
2018-12-26T19:54:38.988Z,69.30
2018-12-26T19:57:08.524Z,69.61
2018-12-26T19:59:38.093Z,69.62
2018-12-26T20:02:07.627Z,69.63
2018-12-26T20:04:37.152Z,69.78
2018-12-26T20:07:07.626Z,70.01
2018-12-26T20:09:37.192Z,70.23
2018-12-26T20:12:07.255Z,70.19
2018-12-26T20:14:38.915Z,70.28
2018-12-26T20:17:08.433Z,70.26
2018-12-26T20:19:37.974Z,70.46
2018-12-26T20:22:07.539Z,70.24
2018-12-26T20:24:37.235Z,69.97
2018-12-26T20:27:06.745Z,70.12
2018-12-26T20:29:36.301Z,70.09
2018-12-26T20:32:05.933Z,70.09
2018-12-26T20:34:37.099Z,70.12
2018-12-26T20:37:07.684Z,70.07
2018-12-26T20:39:37.216Z,70.16
2018-12-26T20:42:06.760Z,70.59
2018-12-26T20:44:36.299Z,70.86
2018-12-26T20:47:05.864Z,71.03
2018-12-26T20:49:35.382Z,71.08
2018-12-26T20:52:04.937Z,71.33
2018-12-26T20:54:34.476Z,71.52
2018-12-26T20:57:04.043Z,71.58
2018-12-26T20:59:33.562Z,71.61
2018-12-26T21:02:05.734Z,71.59
2018-12-26T21:04:36.766Z,71.73
2018-12-26T21:07:06.319Z,71.89
2018-12-26T21:09:35.892Z,71.97
2018-12-26T21:12:07.679Z,72.18
2018-12-26T21:14:37.243Z,72.19
2018-12-26T21:17:06.860Z,72.31
2018-12-26T21:19:36.531Z,72.42
2018-12-26T21:22:06.071Z,72.44
2018-12-26T21:24:35.617Z,72.49
2018-12-26T21:27:05.166Z,72.46
2018-12-26T21:29:35.022Z,72.42
2018-12-26T21:32:04.575Z,72.48
2018-12-26T21:34:34.162Z,72.43
2018-12-26T21:37:03.718Z,72.38
2018-12-26T21:39:33.516Z,72.45
2018-12-26T21:42:03.298Z,72.44
2018-12-26T21:44:32.899Z,72.50
2018-12-26T21:47:02.438Z,72.48
2018-12-26T21:49:32.025Z,72.38
2018-12-26T21:52:01.556Z,72.21
2018-12-26T21:54:31.091Z,71.83
2018-12-26T21:57:00.672Z,71.25
2018-12-26T21:59:30.843Z,70.56
2018-12-26T22:02:01.548Z,70.32
2018-12-26T22:04:31.096Z,69.97
2018-12-26T22:07:00.629Z,69.59
2018-12-26T22:09:30.175Z,69.42
2018-12-26T22:11:59.744Z,69.59
2018-12-26T22:14:29.569Z,69.54
2018-12-26T22:16:59.071Z,69.31
2018-12-26T22:19:28.601Z,69.29
2018-12-26T22:21:59.918Z,69.28
2018-12-26T22:24:29.454Z,69.01
2018-12-26T22:26:59.016Z,69.14
2018-12-26T22:29:28.566Z,69.26
2018-12-26T22:31:58.153Z,69.23
2018-12-26T22:34:27.690Z,69.18
2018-12-26T22:36:58.313Z,69.09
2018-12-26T22:39:27.880Z,68.80
2018-12-26T22:41:57.407Z,68.91
2018-12-26T22:44:27.848Z,69.07
2018-12-26T22:46:57.571Z,69.34
2018-12-26T22:49:27.128Z,69.49
2018-12-26T22:51:56.672Z,69.50
2018-12-26T22:54:26.207Z,69.56
2018-12-26T22:56:55.748Z,69.41
2018-12-26T22:59:25.591Z,69.43
2018-12-26T23:01:55.090Z,68.92
2018-12-26T23:04:24.631Z,68.66
2018-12-26T23:06:54.174Z,68.53
2018-12-26T23:09:25.577Z,68.56
2018-12-26T23:11:56.651Z,68.65
2018-12-26T23:14:27.968Z,68.83
2018-12-26T23:16:57.788Z,68.98
2018-12-26T23:19:27.433Z,69.34
2018-12-26T23:21:56.979Z,69.55
2018-12-26T23:24:26.520Z,69.64
2018-12-26T23:26:56.068Z,69.33
2018-12-26T23:29:25.662Z,69.18
2018-12-26T23:31:55.209Z,69.42
2018-12-26T23:34:24.745Z,69.58
2018-12-26T23:36:54.431Z,69.45
2018-12-26T23:39:23.964Z,69.51
2018-12-26T23:41:55.225Z,69.68
2018-12-26T23:44:26.967Z,69.88
2018-12-26T23:46:56.448Z,68.67
2018-12-26T23:49:27.288Z,68.26
2018-12-26T23:51:58.033Z,68.26
2018-12-26T23:54:27.568Z,68.33
2018-12-26T23:56:58.122Z,68.20
2018-12-26T23:59:30.503Z,68.47
